Time;durP1;ratioP1;P1;durP2;ratioP2;P2;SDS_P1;SDS_P2;PMS_P1;PMS_P2;Temp;Humidity;BMP_temperature;BMP_pressure;BME280_temperature;BME280_humidity;BME280_pressure;Samples;Min_cycle;Max_cycle;Signal;HPM_P1;HPM_P2
2021/11/20 00:01:39;;;;;;;8.80;2.10;;;;;;;16.47;43.12;100686.81;4991395;28;20355;-59
2021/11/20 00:04:07;;;;;;;2.40;1.23;;;;;;;16.39;42.48;100667.03;4992785;28;20046;-59
2021/11/20 00:06:38;;;;;;;4.20;1.80;;;;;;;16.41;42.75;100674.03;4989941;28;20097;-63
2021/11/20 00:09:07;;;;;;;3.17;1.77;;;;;;;16.56;42.30;100678.47;4993044;28;20116;-65
2021/11/20 00:11:36;;;;;;;;;;;;;;;16.54;42.65;100675.13;4994591;28;20129;-65
2021/11/20 00:14:04;;;;;;;5.30;1.87;;;;;;;16.66;42.17;100675.41;4978603;28;20013;-64
2021/11/20 00:16:31;;;;;;;2.33;1.63;;;;;;;16.63;42.08;100676.03;4988469;28;20062;-62
2021/11/20 00:18:59;;;;;;;2.43;1.23;;;;;;;16.67;42.32;100668.59;4982167;28;20057;-64
2021/11/20 00:21:34;;;;;;;3.00;1.40;;;;;;;16.69;42.13;100674.78;4990246;28;20074;-62
2021/11/20 00:24:04;;;;;;;2.37;1.43;;;;;;;16.73;41.79;100672.97;4989076;28;20112;-63
2021/11/20 00:26:35;;;;;;;3.20;1.50;;;;;;;16.71;41.90;100675.25;4990904;28;20101;-64
2021/11/20 00:29:18;;;;;;;5.90;1.50;;;;;;;16.71;41.99;100680.06;4992195;28;20458;-65
2021/11/20 00:31:50;;;;;;;2.40;1.47;;;;;;;16.64;42.27;100674.88;4999264;28;20225;-63
2021/11/20 00:34:21;;;;;;;2.20;1.40;;;;;;;16.59;42.25;100666.56;4990156;28;20076;-63
2021/11/20 00:36:49;;;;;;;3.87;1.80;;;;;;;16.62;42.29;100670.72;4993163;28;20549;-64
2021/11/20 00:39:19;;;;;;;1.47;0.90;;;;;;;16.66;42.23;100666.13;4975493;28;20081;-64
2021/11/20 00:41:46;;;;;;;1.70;1.17;;;;;;;16.64;41.94;100669.22;4992311;28;20446;-64
2021/11/20 00:44:14;;;;;;;2.83;1.60;;;;;;;16.61;42.21;100669.03;4992556;28;20133;-64
2021/11/20 00:46:42;;;;;;;8.40;1.60;;;;;;;16.52;42.22;100666.16;4991705;28;20089;-63
2021/11/20 00:49:10;;;;;;;2.83;1.40;;;;;;;16.46;42.36;100651.34;4991753;28;20047;-62
2021/11/20 00:51:37;;;;;;;2.90;1.70;;;;;;;16.47;42.39;100664.28;4965528;28;20050;-60
2021/11/20 00:54:05;;;;;;;3.53;1.90;;;;;;;16.42;42.16;100646.66;4992234;28;20070;-61
2021/11/20 00:56:34;;;;;;;2.60;1.47;;;;;;;16.37;42.38;100650.41;4992148;28;20133;-60
2021/11/20 00:59:01;;;;;;;2.07;1.20;;;;;;;16.43;42.48;100660.44;4990810;28;20090;-58
2021/11/20 01:01:34;;;;;;;4.33;1.60;;;;;;;16.38;42.16;100642.81;4990666;28;20161;-60
2021/11/20 01:04:02;;;;;;;1.20;0.93;;;;;;;16.41;42.48;100642.16;4990673;28;20053;-69
2021/11/20 01:06:30;;;;;;;2.37;1.17;;;;;;;16.30;42.31;100635.94;4990653;28;20193;-68
2021/11/20 01:08:57;;;;;;;0.93;0.77;;;;;;;16.27;42.72;100647.84;4989727;28;20129;-70
2021/11/20 01:11:37;;;;;;;11.40;1.63;;;;;;;16.26;42.47;100641.38;4990684;28;20134;-75
2021/11/20 01:14:07;;;;;;;;;;;;;;;16.38;42.23;100632.38;4990008;28;20134;-71
2021/11/20 01:16:34;;;;;;;12.75;1.67;;;;;;;16.49;42.13;100638.59;4991263;28;20035;-71
2021/11/20 01:19:03;;;;;;;1.07;0.90;;;;;;;16.42;42.05;100629.75;4992356;28;20053;-72
2021/11/20 01:21:32;;;;;;;2.90;1.43;;;;;;;16.29;42.65;100621.00;4987971;28;20114;-71
2021/11/20 01:23:59;;;;;;;3.40;1.10;;;;;;;16.39;42.39;100630.38;4990139;28;20532;-74
2021/11/20 01:26:26;;;;;;;3.50;1.50;;;;;;;16.37;42.66;100629.88;4988061;28;20081;-70
2021/11/20 01:28:55;;;;;;;0.53;0.53;;;;;;;16.33;42.35;100618.41;4990953;28;20086;-71
2021/11/20 01:31:25;;;;;;;3.03;1.45;;;;;;;16.32;42.78;100622.38;4992384;28;20078;-75
2021/11/20 01:33:53;;;;;;;6.50;1.70;;;;;;;16.30;42.75;100631.13;4989819;28;20073;-69
2021/11/20 01:36:25;;;;;;;1.83;1.27;;;;;;;16.37;42.73;100627.03;4988632;28;20133;-62
2021/11/20 01:38:55;;;;;;;1.90;0.83;;;;;;;16.33;42.88;100633.31;4987980;28;20141;-65
2021/11/20 01:41:24;;;;;;;0.75;0.47;;;;;;;16.22;42.87;100628.25;4989542;28;20450;-65
2021/11/20 01:43:54;;;;;;;1.33;0.90;;;;;;;16.30;42.58;100619.84;4990499;28;20104;-63
2021/11/20 01:46:25;;;;;;;5.53;1.63;;;;;;;16.19;42.49;100614.78;4990376;28;20097;-62
2021/11/20 01:48:55;;;;;;;1.43;0.93;;;;;;;16.31;42.44;100632.81;4990333;28;20082;-61
2021/11/20 01:51:31;;;;;;;2.35;0.65;;;;;;;16.17;42.74;100636.78;4991000;28;20050;-61
2021/11/20 01:54:27;;;;;;;3.17;1.50;;;;;;;16.18;42.80;100622.41;4986041;28;20186;-61
2021/11/20 01:57:19;;;;;;;5.88;1.45;;;;;;;16.25;42.47;100614.34;4989497;28;20133;-61
2021/11/20 01:59:56;;;;;;;2.57;1.00;;;;;;;16.35;42.67;100628.19;4990366;28;20050;-61
2021/11/20 02:02:33;;;;;;;2.60;1.63;;;;;;;16.20;42.78;100622.91;4989957;28;20093;-61
2021/11/20 02:05:06;;;;;;;2.53;1.10;;;;;;;16.20;42.54;100625.72;4989886;28;20082;-61
2021/11/20 02:07:52;;;;;;;2.03;0.77;;;;;;;16.14;42.88;100621.38;4989022;28;20046;-61
2021/11/20 02:10:30;;;;;;;4.63;0.87;;;;;;;16.08;42.96;100622.63;4990490;28;20046;-61
2021/11/20 02:13:27;;;;;;;6.07;1.80;;;;;;;16.15;42.96;100616.56;4989714;28;20093;-61
2021/11/20 02:15:59;;;;;;;0.47;0.23;;;;;;;16.10;43.04;100625.94;4977948;28;20055;-60
2021/11/20 02:18:32;;;;;;;1.37;1.00;;;;;;;16.11;42.91;100627.63;4973418;28;20047;-61
2021/11/20 02:21:08;;;;;;;2.53;1.33;;;;;;;16.15;42.80;100625.84;4983542;28;20138;-61
2021/11/20 02:23:35;;;;;;;1.83;1.30;;;;;;;16.17;42.87;100625.53;4989730;28;20082;-60
2021/11/20 02:26:03;;;;;;;1.77;0.97;;;;;;;16.27;42.47;100614.88;4981626;28;20222;-60
2021/11/20 02:28:30;;;;;;;4.80;1.33;;;;;;;16.22;42.55;100608.50;4989327;28;20129;-60
2021/11/20 02:30:58;;;;;;;1.27;0.73;;;;;;;16.11;42.92;100599.47;4990362;28;20571;-60
2021/11/20 02:33:32;;;;;;;1.33;0.80;;;;;;;16.13;42.84;100610.41;4988742;28;20133;-60
2021/11/20 02:36:12;;;;;;;1.33;0.80;;;;;;;16.22;42.54;100608.50;4970238;28;20129;-60
2021/11/20 02:38:41;;;;;;;6.32;1.60;;;;;;;16.20;42.72;100614.44;4987679;28;20481;-60
2021/11/20 02:41:11;;;;;;;3.00;0.87;;;;;;;16.08;42.99;100609.38;4989108;28;20084;-62
2021/11/20 02:43:42;;;;;;;0.40;0.40;;;;;;;16.04;43.06;100605.53;4971974;28;20846;-64
2021/11/20 02:46:11;;;;;;;3.07;1.00;;;;;;;15.98;43.39;100598.34;4991446;28;20554;-64
2021/11/20 02:48:38;;;;;;;0.97;0.87;;;;;;;16.00;43.46;100609.28;4973820;28;20061;-63
2021/11/20 02:51:10;;;;;;;2.53;1.57;;;;;;;16.03;43.21;100608.66;4992656;28;20383;-63
2021/11/20 02:53:41;;;;;;;3.07;1.53;;;;;;;16.04;43.38;100599.06;4994162;28;20498;-63
2021/11/20 02:56:12;;;;;;;1.23;0.97;;;;;;;15.94;43.44;100604.94;4989380;28;20648;-62
2021/11/20 02:58:40;;;;;;;2.03;1.27;;;;;;;15.90;43.26;100618.81;4992883;28;20129;-62
2021/11/20 03:01:17;;;;;;;3.43;1.13;;;;;;;15.86;43.40;100598.91;4993591;28;20085;-63
2021/11/20 03:03:44;;;;;;;3.50;1.30;;;;;;;15.97;43.26;100609.94;4994601;28;20050;-60
2021/11/20 03:06:11;;;;;;;1.60;1.17;;;;;;;15.94;43.14;100599.31;4987919;28;20050;-60
2021/11/20 03:08:39;;;;;;;3.17;0.93;;;;;;;16.04;43.34;100607.53;4983781;28;20146;-61
2021/11/20 03:11:06;;;;;;;7.40;1.60;;;;;;;16.03;42.94;100595.44;4992190;28;20092;-60
2021/11/20 03:13:34;;;;;;;1.07;0.83;;;;;;;15.98;43.13;100605.97;4992685;28;20153;-60
2021/11/20 03:16:01;;;;;;;0.43;0.43;;;;;;;15.98;43.13;100600.31;4992274;28;20133;-61
2021/11/20 03:18:28;;;;;;;2.33;1.07;;;;;;;15.96;43.39;100605.44;4993311;28;20137;-60
2021/11/20 03:20:55;;;;;;;1.50;1.10;;;;;;;15.96;43.08;100608.25;4993275;28;20073;-61
2021/11/20 03:23:35;;;;;;;3.10;1.33;;;;;;;15.93;43.48;100595.66;4987362;28;20137;-62
2021/11/20 03:26:04;;;;;;;1.20;1.10;;;;;;;16.00;43.12;100592.38;4989584;28;20130;-62
2021/11/20 03:28:31;;;;;;;1.53;1.00;;;;;;;15.83;43.36;100588.25;4993097;28;20134;-61
2021/11/20 03:30:58;;;;;;;2.10;1.03;;;;;;;15.68;43.68;100565.22;4993083;28;20477;-60
2021/11/20 03:33:25;;;;;;;0.57;0.47;;;;;;;15.83;43.32;100599.53;4991810;28;20125;-60
2021/11/20 03:35:53;;;;;;;2.37;1.10;;;;;;;15.97;43.10;100593.03;4991745;28;20387;-63
2021/11/20 03:38:19;;;;;;;2.37;0.97;;;;;;;15.86;43.28;100590.44;4990630;28;20093;-63
2021/11/20 03:40:47;;;;;;;1.93;1.00;;;;;;;15.83;43.65;100593.88;4991604;28;20154;-63
2021/11/20 03:43:15;;;;;;;2.23;1.30;;;;;;;15.83;43.80;100593.06;4989715;28;20137;-63
2021/11/20 03:45:42;;;;;;;3.43;1.37;;;;;;;15.88;43.37;100590.94;4992027;28;20130;-61
2021/11/20 03:48:11;;;;;;;3.23;2.07;;;;;;;15.68;43.98;100584.94;4991899;28;20130;-62
2021/11/20 03:50:42;;;;;;;2.40;1.30;;;;;;;15.69;43.97;100575.31;4980496;28;20145;-63
2021/11/20 03:53:10;;;;;;;1.03;0.77;;;;;;;15.69;43.91;100592.22;4990925;28;20101;-64
2021/11/20 03:55:41;;;;;;;2.80;1.40;;;;;;;15.71;44.20;100584.31;4992683;28;20133;-61
2021/11/20 03:58:09;;;;;;;0.97;0.60;;;;;;;15.61;44.30;100591.78;4992820;28;20088;-64
2021/11/20 04:00:44;;;;;;;1.30;0.70;;;;;;;15.63;44.34;100594.28;4990555;28;20134;-62
2021/11/20 04:03:12;;;;;;;2.13;1.00;;;;;;;15.68;44.24;100580.13;4992173;28;20038;-62
2021/11/20 04:05:39;;;;;;;2.13;1.17;;;;;;;15.58;44.63;100588.75;4988311;28;22933;-62
2021/11/20 04:08:06;;;;;;;2.63;1.50;;;;;;;15.63;44.32;100589.50;4992271;28;20089;-61
2021/11/20 04:10:45;;;;;;;0.73;0.73;;;;;;;15.57;44.37;100589.91;4991393;28;20054;-60
2021/11/20 04:13:13;;;;;;;0.73;0.73;;;;;;;15.63;44.44;100594.28;4990143;28;20125;-60
2021/11/20 04:15:40;;;;;;;1.27;0.83;;;;;;;15.54;44.64;100584.91;4990292;28;20085;-61
2021/11/20 04:18:07;;;;;;;1.83;0.77;;;;;;;15.57;44.68;100576.66;4993423;28;20375;-61
2021/11/20 04:20:34;;;;;;;0.87;0.40;;;;;;;15.56;44.29;100574.19;4991473;28;20161;-60
2021/11/20 04:23:04;;;;;;;0.63;0.30;;;;;;;15.57;44.52;100584.28;4990271;28;20073;-59
2021/11/20 04:25:32;;;;;;;2.58;1.30;;;;;;;15.63;44.21;100577.41;4990503;28;20141;-60
2021/11/20 04:27:59;;;;;;;1.20;0.90;;;;;;;15.63;44.36;100583.88;4992714;28;20133;-59
2021/11/20 04:30:27;;;;;;;2.43;1.00;;;;;;;15.48;44.35;100556.03;4992045;28;20082;-60
2021/11/20 04:32:54;;;;;;;1.00;0.80;;;;;;;15.74;44.21;100595.78;4972320;28;20082;-60
2021/11/20 04:35:24;;;;;;;1.87;1.20;;;;;;;15.64;44.60;100585.53;4989164;28;20141;-60
2021/11/20 04:37:51;;;;;;;;;;;;;;;15.62;44.38;100586.97;4992029;28;20108;-60
2021/11/20 04:40:19;;;;;;;1.43;1.07;;;;;;;15.71;44.10;100587.13;4989182;28;19972;-60
2021/11/20 04:42:46;;;;;;;2.67;1.77;;;;;;;15.53;44.52;100572.81;4990673;28;20049;-60
2021/11/20 04:45:17;;;;;;;0.67;0.40;;;;;;;15.58;44.65;100574.69;4988921;28;20050;-60
2021/11/20 04:47:44;;;;;;;3.90;1.00;;;;;;;15.70;44.50;100589.09;4988899;28;20050;-60
2021/11/20 04:50:13;;;;;;;1.50;0.83;;;;;;;15.68;44.64;100594.19;4992151;28;20097;-60
2021/11/20 04:52:40;;;;;;;6.07;1.33;;;;;;;15.68;44.77;100604.63;4990001;28;20462;-61
2021/11/20 04:55:10;;;;;;;4.00;1.60;;;;;;;15.75;44.54;100600.25;4988891;28;20457;-60
2021/11/20 04:57:37;;;;;;;1.55;0.70;;;;;;;15.71;44.76;100607.66;4985331;28;20081;-60
2021/11/20 05:00:12;;;;;;;4.73;1.27;;;;;;;15.66;44.94;100604.97;4990480;28;20125;-62
2021/11/20 05:02:40;;;;;;;1.03;0.77;;;;;;;15.73;44.69;100587.66;4990570;28;20494;-62
2021/11/20 05:05:07;;;;;;;4.70;0.80;;;;;;;15.69;44.47;100604.34;4986229;28;20046;-61
2021/11/20 05:07:34;;;;;;;4.07;1.20;;;;;;;15.70;44.89;100617.25;4988622;28;20094;-62
2021/11/20 05:10:01;;;;;;;4.60;1.80;;;;;;;15.20;46.55;100599.38;4990174;28;20129;-62
2021/11/20 05:12:28;;;;;;;0.83;0.63;;;;;;;15.02;47.04;100609.56;4989780;28;20258;-61
2021/11/20 05:14:55;;;;;;;2.63;1.20;;;;;;;14.96;47.21;100613.59;4990428;28;20530;-61
2021/11/20 05:17:22;;;;;;;3.27;1.47;;;;;;;15.23;47.00;100618.44;4972875;28;20077;-61
2021/11/20 05:19:49;;;;;;;3.50;1.57;;;;;;;15.36;46.87;100617.63;4998707;28;20144;-60
2021/11/20 05:22:16;;;;;;;0.77;0.73;;;;;;;15.49;46.63;100632.88;4987619;28;20073;-60
2021/11/20 05:24:43;;;;;;;3.90;1.17;;;;;;;15.56;46.25;100619.22;4989220;28;20133;-59
2021/11/20 05:27:10;;;;;;;1.27;0.90;;;;;;;15.59;46.52;100624.22;4991366;28;20053;-61
2021/11/20 05:29:53;;;;;;;4.83;1.50;;;;;;;15.63;46.20;100625.25;4991345;28;20578;-60
2021/11/20 05:32:20;;;;;;;1.77;1.20;;;;;;;15.71;46.25;100613.28;4991099;28;20405;-60
2021/11/20 05:34:47;;;;;;;1.53;0.87;;;;;;;15.62;46.34;100623.56;4988100;28;20053;-61
2021/11/20 05:37:14;;;;;;;2.80;1.30;;;;;;;15.69;46.01;100632.50;4981353;28;20457;-60
2021/11/20 05:39:41;;;;;;;1.67;1.20;;;;;;;15.65;46.17;100634.22;4989495;28;20446;-61
2021/11/20 05:42:08;;;;;;;3.60;0.97;;;;;;;15.26;47.08;100590.53;4983698;28;20093;-64
2021/11/20 05:44:35;;;;;;;1.33;0.73;;;;;;;14.74;50.27;100634.78;4988914;28;20086;-63
2021/11/20 05:47:03;;;;;;;0.73;0.70;;;;;;;13.76;54.75;100640.09;4988779;28;20549;-65
2021/11/20 05:49:36;;;;;;;0.80;0.53;;;;;;;13.07;56.24;100633.00;4972965;28;20046;-66
2021/11/20 05:52:04;;;;;;;5.80;1.93;;;;;;;12.81;55.27;100591.19;4990859;28;20046;-68
2021/11/20 05:54:31;;;;;;;5.77;1.43;;;;;;;12.90;56.19;100637.06;4989496;28;20125;-65
2021/11/20 05:56:58;;;;;;;7.63;1.63;;;;;;;13.07;55.57;100625.41;4991251;28;20141;-64
2021/11/20 05:59:25;;;;;;;3.63;1.40;;;;;;;13.15;55.14;100601.50;4990072;28;20096;-63
2021/11/20 06:01:53;;;;;;;2.40;1.07;;;;;;;13.36;54.82;100627.38;4988194;28;20078;-65
2021/11/20 06:04:20;;;;;;;5.53;1.50;;;;;;;13.32;55.86;100643.97;4989180;28;20125;-64
2021/11/20 06:06:48;;;;;;;2.43;1.40;;;;;;;13.25;56.29;100640.69;4990230;28;20118;-63
2021/11/20 06:09:15;;;;;;;3.80;1.43;;;;;;;13.24;56.50;100648.25;4991195;28;20050;-62
2021/11/20 06:11:42;;;;;;;3.63;0.73;;;;;;;13.27;56.71;100641.25;4986295;28;20506;-60
2021/11/20 06:14:09;;;;;;;1.43;1.00;;;;;;;13.47;56.38;100635.41;4990249;28;20125;-60
2021/11/20 06:16:36;;;;;;;2.37;1.10;;;;;;;13.65;56.36;100652.59;4987762;28;20090;-61
2021/11/20 06:19:04;;;;;;;0.80;0.77;;;;;;;13.71;56.08;100634.56;4990371;28;20086;-62
2021/11/20 06:21:31;;;;;;;6.50;1.63;;;;;;;13.92;55.98;100651.97;4985219;28;20506;-62
2021/11/20 06:23:59;;;;;;;2.77;1.33;;;;;;;14.06;55.63;100635.22;4993744;28;20509;-63
2021/11/20 06:26:25;;;;;;;1.90;1.40;;;;;;;14.19;55.54;100642.91;4992816;28;20120;-64
2021/11/20 06:28:53;;;;;;;4.00;1.10;;;;;;;14.20;55.67;100648.22;4992364;28;20078;-60
2021/11/20 06:31:21;;;;;;;4.00;1.27;;;;;;;14.27;55.67;100647.84;4994851;28;20136;-59
2021/11/20 06:33:49;;;;;;;1.57;1.10;;;;;;;14.27;55.63;100642.22;4993226;28;20679;-59
2021/11/20 06:36:16;;;;;;;2.73;1.30;;;;;;;14.33;55.79;100641.00;4992817;28;20042;-59
2021/11/20 06:38:44;;;;;;;0.53;0.53;;;;;;;14.39;55.85;100636.13;4993576;28;20129;-59
2021/11/20 06:41:11;;;;;;;6.17;1.23;;;;;;;14.43;55.70;100640.03;4992411;28;20093;-60
2021/11/20 06:43:37;;;;;;;5.83;1.37;;;;;;;14.43;55.73;100640.84;4989264;28;20554;-60
2021/11/20 06:46:08;;;;;;;1.37;1.03;;;;;;;14.49;55.60;100638.78;4984957;28;20042;-60
2021/11/20 06:48:36;;;;;;;4.57;0.97;;;;;;;14.54;55.59;100641.56;4994267;28;20046;-59
2021/11/20 06:51:04;;;;;;;2.57;1.33;;;;;;;14.58;55.75;100647.41;4994566;28;20466;-59
2021/11/20 06:53:33;;;;;;;3.70;1.20;;;;;;;14.53;55.49;100627.81;4992845;28;20153;-59
2021/11/20 06:56:01;;;;;;;1.73;1.30;;;;;;;14.54;56.14;100626.69;4984548;28;20051;-58
2021/11/20 07:01:03;;;;;;;2.27;0.90;;;;;;;14.69;56.79;100637.66;4986999;28;20140;-60
2021/11/20 07:03:34;;;;;;;4.00;1.53;;;;;;;14.78;56.72;100638.66;4990198;28;20042;-60
2021/11/20 07:06:03;;;;;;;;;;;;;;;14.69;57.16;100654.53;4990833;28;20125;-60
2021/11/20 07:08:30;;;;;;;6.50;1.52;;;;;;;14.81;56.98;100656.88;4991807;28;19953;-62
2021/11/20 07:10:59;;;;;;;0.70;0.50;;;;;;;14.80;57.14;100650.44;4979116;28;20140;-61
2021/11/20 07:13:26;;;;;;;4.07;2.17;;;;;;;14.88;56.40;100646.91;4991805;28;20138;-60
2021/11/20 07:15:53;;;;;;;1.90;1.13;;;;;;;14.93;55.61;100655.25;4963341;28;20047;-62
2021/11/20 07:18:22;;;;;;;1.07;0.70;;;;;;;14.93;54.61;100638.38;4992172;28;20110;-63
2021/11/20 07:20:49;;;;;;;3.37;1.20;;;;;;;15.10;53.84;100649.03;4988911;28;20434;-62
2021/11/20 07:23:16;;;;;;;2.27;1.17;;;;;;;15.10;53.37;100653.84;4988742;28;20058;-61
2021/11/20 07:25:44;;;;;;;4.47;2.10;;;;;;;15.14;52.91;100638.88;4977967;28;20506;-60
2021/11/20 07:28:11;;;;;;;1.17;0.50;;;;;;;15.19;52.76;100640.75;4987794;28;20480;-60
2021/11/20 07:30:41;;;;;;;2.53;1.47;;;;;;;14.96;52.23;100593.91;4990747;28;20282;-59
2021/11/20 07:33:09;;;;;;;2.70;1.30;;;;;;;15.13;52.26;100630.72;4991709;28;20089;-59
2021/11/20 07:35:43;;;;;;;0.40;0.40;;;;;;;15.11;52.11;100649.88;4992129;28;20078;-59
2021/11/20 07:38:14;;;;;;;3.53;1.63;;;;;;;15.11;51.96;100655.50;4978482;28;20562;-60
2021/11/20 07:40:42;;;;;;;1.53;1.00;;;;;;;15.08;51.83;100650.50;4991651;28;20129;-60
2021/11/20 07:43:11;;;;;;;2.37;1.40;;;;;;;15.06;51.91;100653.63;4990706;28;20476;-61
2021/11/20 07:45:38;;;;;;;2.17;0.50;;;;;;;15.02;51.61;100657.38;4984362;28;20126;-60
2021/11/20 07:48:11;;;;;;;0.37;0.37;;;;;;;14.96;51.43;100652.97;4988920;28;20133;-59
2021/11/20 07:50:39;;;;;;;1.43;0.90;;;;;;;15.03;51.50;100650.59;4992463;28;20038;-59
2021/11/20 07:53:06;;;;;;;3.30;1.10;;;;;;;15.09;51.45;100669.06;4993979;28;20490;-60
2021/11/20 07:55:34;;;;;;;1.50;0.70;;;;;;;15.10;51.20;100679.16;4991313;28;20168;-63
2021/11/20 07:58:01;;;;;;;8.23;1.90;;;;;;;15.12;50.87;100663.66;4986480;28;20045;-66
2021/11/20 08:00:29;;;;;;;2.90;1.27;;;;;;;15.14;50.76;100663.31;4987587;28;20125;-63
2021/11/20 08:02:56;;;;;;;2.13;1.23;;;;;;;15.32;50.75;100676.50;4964907;28;20046;-64
2021/11/20 08:05:27;;;;;;;0.73;0.63;;;;;;;15.33;50.82;100680.16;4992335;28;20038;-60
2021/11/20 08:07:55;;;;;;;3.97;1.65;;;;;;;15.46;50.62;100673.72;4985952;28;20054;-60
2021/11/20 08:10:23;;;;;;;2.23;1.20;;;;;;;15.43;50.35;100677.16;4992923;28;20106;-60
2021/11/20 08:12:50;;;;;;;3.87;1.47;;;;;;;15.47;50.09;100675.38;4992674;28;20122;-59
2021/11/20 08:15:17;;;;;;;0.87;0.80;;;;;;;15.57;50.02;100689.25;4990084;28;20555;-60
2021/11/20 08:17:44;;;;;;;1.23;0.67;;;;;;;15.68;49.65;100683.47;4990994;28;20118;-60
2021/11/20 08:20:14;;;;;;;3.30;1.00;;;;;;;15.68;49.65;100689.91;4990910;28;20137;-60
2021/11/20 08:22:41;;;;;;;4.78;1.52;;;;;;;15.67;49.16;100674.19;4990944;28;20132;-59
2021/11/20 08:25:12;;;;;;;1.20;0.97;;;;;;;15.68;48.83;100692.75;4983221;28;20074;-58
2021/11/20 08:27:40;;;;;;;2.13;1.17;;;;;;;15.46;48.92;100656.00;4984734;28;20137;-59
2021/11/20 08:30:10;;;;;;;2.30;1.10;;;;;;;15.70;49.11;100686.81;4988960;28;20126;-59
2021/11/20 08:32:37;;;;;;;2.17;1.58;;;;;;;15.67;49.02;100704.31;4988839;28;20129;-58
2021/11/20 08:35:05;;;;;;;5.10;1.43;;;;;;;15.60;48.96;100691.47;4988457;28;20455;-58
2021/11/20 08:37:33;;;;;;;1.67;1.43;;;;;;;15.52;48.88;100709.06;4987173;28;20133;-58
2021/11/20 08:40:01;;;;;;;1.57;0.90;;;;;;;15.45;48.88;100688.91;4989947;28;20129;-58
2021/11/20 08:42:30;;;;;;;3.83;1.20;;;;;;;15.58;49.25;100721.06;4988781;28;20133;-59
2021/11/20 08:44:57;;;;;;;6.93;2.30;;;;;;;15.60;49.18;100704.69;4985381;28;20141;-59
2021/11/20 08:47:24;;;;;;;3.97;1.93;;;;;;;15.61;49.12;100706.38;4982109;28;20130;-59
2021/11/20 08:49:51;;;;;;;1.47;0.87;;;;;;;15.54;49.15;100711.56;4989918;28;20134;-59
2021/11/20 08:52:18;;;;;;;2.93;1.90;;;;;;;15.51;49.39;100695.28;4988137;28;20502;-59
2021/11/20 08:54:44;;;;;;;2.03;1.33;;;;;;;15.56;49.16;100700.84;4990278;28;20469;-59
2021/11/20 08:57:13;;;;;;;2.07;1.40;;;;;;;15.45;49.49;100694.53;4989852;28;20467;-59
2021/11/20 08:59:41;;;;;;;3.20;1.90;;;;;;;15.48;49.38;100704.34;4983815;28;20103;-60
2021/11/20 09:02:11;;;;;;;5.17;2.97;;;;;;;15.62;49.32;100710.84;4984075;28;20052;-59
2021/11/20 09:04:52;;;;;;;12.07;2.42;;;;;;;15.64;48.79;100700.94;4987339;28;20057;-59
2021/11/20 09:07:23;;;;;;;6.63;3.23;;;;;;;15.71;49.03;100713.81;4969331;28;20125;-60
2021/11/20 09:10:15;;;;;;;2.47;1.83;;;;;;;15.77;48.99;100706.94;4986226;28;20049;-58
2021/11/20 09:12:54;;;;;;;3.77;2.20;;;;;;;15.79;49.20;100705.47;4986263;28;20077;-59
2021/11/20 09:15:27;;;;;;;3.67;1.67;;;;;;;15.75;48.92;100710.06;4986948;28;20085;-59
2021/11/20 09:17:54;;;;;;;2.93;1.77;;;;;;;15.82;49.08;100699.22;4983154;28;20054;-59
2021/11/20 09:20:22;;;;;;;2.30;1.67;;;;;;;15.85;48.31;100700.56;4987060;28;20506;-59
2021/11/20 09:22:49;;;;;;;3.37;1.57;;;;;;;15.84;48.58;100702.56;4985089;28;20125;-58
2021/11/20 09:25:17;;;;;;;7.33;2.27;;;;;;;16.08;48.80;100712.78;4980432;28;20142;-59
2021/11/20 09:28:07;;;;;;;1.47;1.27;;;;;;;16.29;48.74;100702.75;4969983;28;20039;-59
2021/11/20 09:30:38;;;;;;;1.63;1.25;;;;;;;16.52;47.99;100706.47;4983056;28;20181;-59
2021/11/20 09:33:05;;;;;;;14.65;2.78;;;;;;;16.85;47.68;100699.78;4984794;28;20150;-59
2021/11/20 09:35:32;;;;;;;3.28;1.67;;;;;;;17.13;47.32;100692.91;4984428;28;20552;-59
2021/11/20 09:38:00;;;;;;;5.47;2.13;;;;;;;17.58;46.83;100700.47;4990340;28;20161;-59
2021/11/20 09:40:31;;;;;;;9.50;4.22;;;;;;;17.81;45.71;100687.13;4987083;28;20078;-59
2021/11/20 09:43:04;;;;;;;4.70;2.72;;;;;;;18.16;45.26;100702.25;4990273;28;20051;-59
2021/11/20 09:45:35;;;;;;;9.23;4.10;;;;;;;18.43;44.77;100695.47;4968173;28;20058;-60
2021/11/20 09:48:24;;;;;;;11.52;4.35;;;;;;;18.93;45.01;100704.34;4990025;28;20450;-60
2021/11/20 09:50:53;;;;;;;5.00;3.65;;;;;;;19.22;43.98;100727.50;4989161;28;20042;-61
2021/11/20 09:53:22;;;;;;;8.23;3.80;;;;;;;19.18;43.65;100713.19;4988284;28;20085;-60
2021/11/20 09:55:56;;;;;;;18.98;5.63;;;;;;;19.22;43.30;100685.84;4988839;28;20153;-60
2021/11/20 09:58:30;;;;;;;7.63;4.75;;;;;;;19.43;43.58;100700.13;4990039;28;20414;-59
2021/11/20 10:01:09;;;;;;;6.88;3.42;;;;;;;19.16;42.95;100685.19;4986993;28;20137;-60
2021/11/20 10:03:48;;;;;;;9.40;4.72;;;;;;;19.07;43.08;100701.34;4985461;28;20134;-60
2021/11/20 10:06:17;;;;;;;12.40;6.63;;;;;;;19.32;43.63;100710.16;4989130;28;20073;-59
2021/11/20 10:08:45;;;;;;;11.95;4.47;;;;;;;19.22;42.93;100697.19;4988445;28;20517;-59
2021/11/20 10:11:27;;;;;;;4.97;3.15;;;;;;;19.18;42.35;100704.69;4986698;28;20055;-58
2021/11/20 10:14:11;;;;;;;4.60;1.63;;;;;;;18.99;42.35;100704.19;4972175;28;20129;-59
2021/11/20 10:16:54;;;;;;;6.65;2.60;;;;;;;18.97;42.85;100698.03;4981249;28;20145;-59
2021/11/20 10:19:36;;;;;;;5.03;1.90;;;;;;;19.04;42.86;100682.22;4984317;28;20088;-59
2021/11/20 10:22:14;;;;;;;6.05;3.05;;;;;;;19.11;43.25;100704.34;4984572;28;20057;-59
2021/11/20 10:24:52;;;;;;;4.13;2.08;;;;;;;19.41;42.90;100700.44;4986020;28;20121;-60
2021/11/20 10:27:36;;;;;;;5.20;3.13;;;;;;;19.56;42.28;100701.09;4990075;28;20077;-60
2021/11/20 10:30:24;;;;;;;3.97;2.38;;;;;;;19.54;41.44;100700.59;4984801;28;20053;-59
2021/11/20 10:33:33;;;;;;;3.97;2.10;;;;;;;19.62;41.05;100700.59;4991576;28;20078;-60
2021/11/20 10:36:12;;;;;;;9.13;4.33;;;;;;;19.93;40.72;100688.16;4971278;28;20047;-60
2021/11/20 10:38:47;;;;;;;6.50;3.28;;;;;;;19.83;39.90;100663.03;4987595;28;20137;-59
2021/11/20 10:41:17;;;;;;;8.75;3.45;;;;;;;19.89;39.89;100698.50;4989005;28;20050;-60
2021/11/20 10:43:47;;;;;;;3.50;2.05;;;;;;;19.49;39.68;100632.81;4991059;28;20066;-59
2021/11/20 10:46:31;;;;;;;7.35;3.80;;;;;;;19.89;39.90;100679.47;4982833;28;20051;-59
2021/11/20 10:49:26;;;;;;;8.77;4.55;;;;;;;20.28;39.52;100662.44;4973214;28;20050;-59
2021/11/20 10:52:05;;;;;;;7.95;2.92;;;;;;;20.68;38.80;100667.69;4983018;28;20146;-58
2021/11/20 10:55:11;;;;;;;11.15;5.00;;;;;;;20.64;38.81;100658.22;4985914;28;20081;-60
2021/11/20 10:57:56;;;;;;;3.95;2.90;;;;;;;20.78;38.39;100678.63;4974082;28;20127;-60
2021/11/20 11:00:53;;;;;;;5.43;3.05;;;;;;;20.63;38.18;100670.75;4991270;28;20553;-59
2021/11/20 11:03:26;;;;;;;10.43;5.13;;;;;;;20.97;37.95;100666.78;4957594;28;20447;-60
2021/11/20 11:06:32;;;;;;;2.30;2.03;;;;;;;20.71;37.40;100664.16;4988719;28;20066;-60
2021/11/20 11:09:41;;;;;;;7.50;4.43;;;;;;;20.93;37.52;100672.31;4987305;28;20137;-59
2021/11/20 11:12:43;;;;;;;6.17;3.47;;;;;;;21.16;37.52;100652.91;4986838;28;20128;-60
2021/11/20 11:15:26;;;;;;;4.00;3.13;;;;;;;21.53;37.29;100648.16;4994644;28;20101;-59
2021/11/20 11:18:06;;;;;;;9.80;4.10;;;;;;;21.62;36.68;100658.59;4994608;28;20089;-59
2021/11/20 11:20:51;;;;;;;;;;;;;;;21.68;36.48;100658.00;4993594;28;20133;-60
2021/11/20 11:23:40;;;;;;;7.22;3.13;;;;;;;21.92;35.85;100633.63;4989985;28;19926;-59
2021/11/20 11:26:10;;;;;;;10.27;4.77;;;;;;;21.93;36.08;100635.28;4990919;28;20133;-58
2021/11/20 11:29:01;;;;;;;10.77;4.75;;;;;;;22.29;36.18;100643.00;4990197;28;20655;-59
2021/11/20 11:31:33;;;;;;;5.20;2.80;;;;;;;22.34;35.50;100651.28;4991117;28;20494;-59
2021/11/20 11:34:00;;;;;;;2.63;2.35;;;;;;;22.27;35.76;100648.22;4993819;28;20423;-58
2021/11/20 11:36:53;;;;;;;4.53;2.85;;;;;;;22.33;35.03;100655.31;4989092;28;20595;-59
2021/11/20 11:39:33;;;;;;;9.45;3.65;;;;;;;22.45;35.55;100637.38;4990880;28;20050;-59
2021/11/20 11:42:30;;;;;;;4.57;2.92;;;;;;;22.24;35.37;100640.38;4992581;28;20078;-59
2021/11/20 11:45:04;;;;;;;4.57;2.70;;;;;;;21.98;35.65;100644.41;4983518;28;20078;-60
2021/11/20 11:47:45;;;;;;;5.13;3.78;;;;;;;21.80;36.06;100628.75;4994319;28;20125;-59
2021/11/20 11:51:08;;;;;;;9.60;3.40;;;;;;;21.77;36.19;100640.84;4984397;28;20138;-60